sensor_id;sensor_type;location;lat;lon;timestamp;temperature;humidity
72814;DHT22;60945;48.516;-2.768;2022-10-23T00:01:27;15.70;84.40
72814;DHT22;60945;48.516;-2.768;2022-10-23T00:04:14;15.70;84.40
72814;DHT22;60945;48.516;-2.768;2022-10-23T00:06:40;15.70;84.40
72814;DHT22;60945;48.516;-2.768;2022-10-23T00:09:08;15.70;84.60
72814;DHT22;60945;48.516;-2.768;2022-10-23T00:11:34;15.70;84.50
72814;DHT22;60945;48.516;-2.768;2022-10-23T00:14:02;15.70;84.40
72814;DHT22;60945;48.516;-2.768;2022-10-23T00:16:29;15.70;84.30
72814;DHT22;60945;48.516;-2.768;2022-10-23T00:18:55;15.80;84.20
72814;DHT22;60945;48.516;-2.768;2022-10-23T00:21:21;15.80;84.20
72814;DHT22;60945;48.516;-2.768;2022-10-23T00:23:47;15.80;84.10
72814;DHT22;60945;48.516;-2.768;2022-10-23T00:26:13;15.70;84.20
72814;DHT22;60945;48.516;-2.768;2022-10-23T00:28:41;15.70;84.30
72814;DHT22;60945;48.516;-2.768;2022-10-23T00:31:07;15.70;84.70
72814;DHT22;60945;48.516;-2.768;2022-10-23T00:33:33;15.60;84.90
72814;DHT22;60945;48.516;-2.768;2022-10-23T00:35:59;15.60;85.10
72814;DHT22;60945;48.516;-2.768;2022-10-23T00:38:24;15.60;84.90
72814;DHT22;60945;48.516;-2.768;2022-10-23T00:40:50;15.60;84.80
72814;DHT22;60945;48.516;-2.768;2022-10-23T00:43:22;15.60;85.00
72814;DHT22;60945;48.516;-2.768;2022-10-23T00:45:48;15.60;84.90
72814;DHT22;60945;48.516;-2.768;2022-10-23T00:48:15;15.60;85.00
72814;DHT22;60945;48.516;-2.768;2022-10-23T00:50:41;15.60;85.00
72814;DHT22;60945;48.516;-2.768;2022-10-23T00:53:08;15.60;84.70
72814;DHT22;60945;48.516;-2.768;2022-10-23T00:55:34;15.60;84.80
72814;DHT22;60945;48.516;-2.768;2022-10-23T00:58:03;15.60;84.90
72814;DHT22;60945;48.516;-2.768;2022-10-23T01:03:14;15.60;84.80
72814;DHT22;60945;48.516;-2.768;2022-10-23T01:05:53;15.60;84.90
72814;DHT22;60945;48.516;-2.768;2022-10-23T01:08:28;15.60;84.90
72814;DHT22;60945;48.516;-2.768;2022-10-23T01:11:14;15.60;84.80
72814;DHT22;60945;48.516;-2.768;2022-10-23T01:14:00;15.60;84.70
72814;DHT22;60945;48.516;-2.768;2022-10-23T01:16:38;15.50;84.90
72814;DHT22;60945;48.516;-2.768;2022-10-23T01:22:23;15.50;85.00
72814;DHT22;60945;48.516;-2.768;2022-10-23T01:24:56;15.50;85.00
72814;DHT22;60945;48.516;-2.768;2022-10-23T01:27:35;15.60;84.80
72814;DHT22;60945;48.516;-2.768;2022-10-23T01:30:13;15.70;84.40
72814;DHT22;60945;48.516;-2.768;2022-10-23T01:32:52;15.70;84.10
72814;DHT22;60945;48.516;-2.768;2022-10-23T01:40:48;15.80;83.90
72814;DHT22;60945;48.516;-2.768;2022-10-23T01:43:19;15.80;83.60
72814;DHT22;60945;48.516;-2.768;2022-10-23T01:45:54;15.80;83.90
72814;DHT22;60945;48.516;-2.768;2022-10-23T01:48:26;15.80;83.80
72814;DHT22;60945;48.516;-2.768;2022-10-23T01:50:55;15.70;83.90
72814;DHT22;60945;48.516;-2.768;2022-10-23T01:53:23;15.60;84.30
72814;DHT22;60945;48.516;-2.768;2022-10-23T01:55:50;15.60;84.50
72814;DHT22;60945;48.516;-2.768;2022-10-23T01:58:18;15.50;85.00
72814;DHT22;60945;48.516;-2.768;2022-10-23T02:00:46;15.50;85.20
72814;DHT22;60945;48.516;-2.768;2022-10-23T02:03:15;15.40;85.40
72814;DHT22;60945;48.516;-2.768;2022-10-23T02:05:42;15.40;85.70
72814;DHT22;60945;48.516;-2.768;2022-10-23T02:08:08;15.40;85.60
72814;DHT22;60945;48.516;-2.768;2022-10-23T02:13:44;15.30;85.70
72814;DHT22;60945;48.516;-2.768;2022-10-23T02:16:34;15.30;85.90
72814;DHT22;60945;48.516;-2.768;2022-10-23T02:19:15;15.40;85.70
72814;DHT22;60945;48.516;-2.768;2022-10-23T02:21:51;15.40;85.70
72814;DHT22;60945;48.516;-2.768;2022-10-23T02:24:30;15.40;85.60
72814;DHT22;60945;48.516;-2.768;2022-10-23T02:27:00;15.50;85.50
72814;DHT22;60945;48.516;-2.768;2022-10-23T02:29:37;15.50;85.40
72814;DHT22;60945;48.516;-2.768;2022-10-23T02:32:06;15.50;85.40
72814;DHT22;60945;48.516;-2.768;2022-10-23T02:34:33;15.50;85.40
72814;DHT22;60945;48.516;-2.768;2022-10-23T02:36:58;15.50;85.40
72814;DHT22;60945;48.516;-2.768;2022-10-23T02:39:25;15.50;85.40
72814;DHT22;60945;48.516;-2.768;2022-10-23T02:42:18;15.50;85.40
72814;DHT22;60945;48.516;-2.768;2022-10-23T02:47:45;15.60;85.20
72814;DHT22;60945;48.516;-2.768;2022-10-23T02:53:19;15.80;84.50
72814;DHT22;60945;48.516;-2.768;2022-10-23T02:56:12;15.70;85.00
72814;DHT22;60945;48.516;-2.768;2022-10-23T02:58:47;15.50;93.80
72814;DHT22;60945;48.516;-2.768;2022-10-23T03:01:23;15.40;96.30
72814;DHT22;60945;48.516;-2.768;2022-10-23T03:03:53;15.10;98.20
72814;DHT22;60945;48.516;-2.768;2022-10-23T03:06:22;14.90;99.90
72814;DHT22;60945;48.516;-2.768;2022-10-23T03:08:52;14.90;99.90
72814;DHT22;60945;48.516;-2.768;2022-10-23T03:11:19;14.80;99.90
72814;DHT22;60945;48.516;-2.768;2022-10-23T03:13:45;14.80;99.90
72814;DHT22;60945;48.516;-2.768;2022-10-23T03:16:11;14.70;99.90
72814;DHT22;60945;48.516;-2.768;2022-10-23T03:18:36;14.70;99.90
72814;DHT22;60945;48.516;-2.768;2022-10-23T03:21:02;14.70;99.90
72814;DHT22;60945;48.516;-2.768;2022-10-23T03:23:28;14.70;99.90
72814;DHT22;60945;48.516;-2.768;2022-10-23T03:25:53;14.70;99.90
72814;DHT22;60945;48.516;-2.768;2022-10-23T03:28:20;14.80;99.90
72814;DHT22;60945;48.516;-2.768;2022-10-23T03:30:46;14.80;99.90
72814;DHT22;60945;48.516;-2.768;2022-10-23T03:33:12;14.90;99.90
72814;DHT22;60945;48.516;-2.768;2022-10-23T03:35:37;14.80;99.90
72814;DHT22;60945;48.516;-2.768;2022-10-23T03:38:03;14.70;99.90
72814;DHT22;60945;48.516;-2.768;2022-10-23T03:40:29;14.70;99.90
72814;DHT22;60945;48.516;-2.768;2022-10-23T03:42:54;14.60;99.90
72814;DHT22;60945;48.516;-2.768;2022-10-23T03:45:20;14.60;99.90
72814;DHT22;60945;48.516;-2.768;2022-10-23T03:47:45;14.60;99.90
72814;DHT22;60945;48.516;-2.768;2022-10-23T03:50:11;14.60;99.90
72814;DHT22;60945;48.516;-2.768;2022-10-23T03:52:38;14.60;99.90
72814;DHT22;60945;48.516;-2.768;2022-10-23T03:55:04;14.60;99.90
72814;DHT22;60945;48.516;-2.768;2022-10-23T03:57:30;14.50;99.90
72814;DHT22;60945;48.516;-2.768;2022-10-23T03:59:56;14.50;99.90
72814;DHT22;60945;48.516;-2.768;2022-10-23T04:02:21;14.50;99.90
72814;DHT22;60945;48.516;-2.768;2022-10-23T04:04:47;14.60;99.90
72814;DHT22;60945;48.516;-2.768;2022-10-23T04:07:13;14.50;99.90
72814;DHT22;60945;48.516;-2.768;2022-10-23T04:09:38;14.50;99.90
72814;DHT22;60945;48.516;-2.768;2022-10-23T04:12:04;14.50;99.90
72814;DHT22;60945;48.516;-2.768;2022-10-23T04:14:30;14.50;99.90
72814;DHT22;60945;48.516;-2.768;2022-10-23T04:16:56;14.20;99.90
72814;DHT22;60945;48.516;-2.768;2022-10-23T04:19:21;14.30;99.90
72814;DHT22;60945;48.516;-2.768;2022-10-23T04:21:47;14.30;99.90
72814;DHT22;60945;48.516;-2.768;2022-10-23T04:24:13;14.20;99.90
72814;DHT22;60945;48.516;-2.768;2022-10-23T04:26:38;14.10;99.90
72814;DHT22;60945;48.516;-2.768;2022-10-23T04:29:04;14.00;99.90
72814;DHT22;60945;48.516;-2.768;2022-10-23T04:31:30;14.00;99.90
72814;DHT22;60945;48.516;-2.768;2022-10-23T04:33:55;14.00;99.90
72814;DHT22;60945;48.516;-2.768;2022-10-23T04:36:21;13.90;99.90
72814;DHT22;60945;48.516;-2.768;2022-10-23T04:38:47;14.00;99.90
72814;DHT22;60945;48.516;-2.768;2022-10-23T04:41:12;14.10;99.90
72814;DHT22;60945;48.516;-2.768;2022-10-23T04:43:38;14.00;99.90
72814;DHT22;60945;48.516;-2.768;2022-10-23T04:46:06;14.00;99.90
72814;DHT22;60945;48.516;-2.768;2022-10-23T04:48:32;13.90;99.90
72814;DHT22;60945;48.516;-2.768;2022-10-23T04:51:02;14.00;99.90
72814;DHT22;60945;48.516;-2.768;2022-10-23T04:53:29;13.90;99.90
72814;DHT22;60945;48.516;-2.768;2022-10-23T04:55:56;13.90;99.90
72814;DHT22;60945;48.516;-2.768;2022-10-23T04:58:23;13.90;99.90
72814;DHT22;60945;48.516;-2.768;2022-10-23T05:00:49;13.80;99.90
72814;DHT22;60945;48.516;-2.768;2022-10-23T05:03:15;13.80;99.90
72814;DHT22;60945;48.516;-2.768;2022-10-23T05:05:41;13.70;99.90
72814;DHT22;60945;48.516;-2.768;2022-10-23T05:08:08;13.70;99.90
72814;DHT22;60945;48.516;-2.768;2022-10-23T05:10:34;13.50;99.90
72814;DHT22;60945;48.516;-2.768;2022-10-23T05:13:00;13.40;99.90
72814;DHT22;60945;48.516;-2.768;2022-10-23T05:15:26;13.30;99.90
72814;DHT22;60945;48.516;-2.768;2022-10-23T05:17:55;13.30;99.90
72814;DHT22;60945;48.516;-2.768;2022-10-23T05:20:25;13.20;99.90
72814;DHT22;60945;48.516;-2.768;2022-10-23T05:22:52;13.00;99.90
72814;DHT22;60945;48.516;-2.768;2022-10-23T05:25:19;12.90;99.90
72814;DHT22;60945;48.516;-2.768;2022-10-23T05:27:45;12.90;99.90
72814;DHT22;60945;48.516;-2.768;2022-10-23T05:30:11;12.80;99.90
72814;DHT22;60945;48.516;-2.768;2022-10-23T05:32:38;12.80;99.90
72814;DHT22;60945;48.516;-2.768;2022-10-23T05:35:10;12.80;99.90
72814;DHT22;60945;48.516;-2.768;2022-10-23T05:37:38;12.70;99.90
72814;DHT22;60945;48.516;-2.768;2022-10-23T05:40:05;12.70;99.90
72814;DHT22;60945;48.516;-2.768;2022-10-23T05:42:30;12.70;99.90
72814;DHT22;60945;48.516;-2.768;2022-10-23T05:44:56;12.70;99.90
72814;DHT22;60945;48.516;-2.768;2022-10-23T05:47:22;12.70;99.90
72814;DHT22;60945;48.516;-2.768;2022-10-23T05:49:47;12.60;99.90
72814;DHT22;60945;48.516;-2.768;2022-10-23T05:52:13;12.70;99.90
72814;DHT22;60945;48.516;-2.768;2022-10-23T05:54:38;12.60;99.90
72814;DHT22;60945;48.516;-2.768;2022-10-23T05:57:04;12.60;99.90
72814;DHT22;60945;48.516;-2.768;2022-10-23T05:59:30;12.60;99.90
72814;DHT22;60945;48.516;-2.768;2022-10-23T06:01:55;12.50;99.90
72814;DHT22;60945;48.516;-2.768;2022-10-23T06:04:21;12.40;99.90
72814;DHT22;60945;48.516;-2.768;2022-10-23T06:06:46;12.40;99.90
72814;DHT22;60945;48.516;-2.768;2022-10-23T06:09:13;12.40;99.90
72814;DHT22;60945;48.516;-2.768;2022-10-23T06:11:40;12.40;99.90
72814;DHT22;60945;48.516;-2.768;2022-10-23T06:14:06;12.40;99.90
72814;DHT22;60945;48.516;-2.768;2022-10-23T06:16:32;12.40;99.90
72814;DHT22;60945;48.516;-2.768;2022-10-23T06:18:57;12.40;99.90
72814;DHT22;60945;48.516;-2.768;2022-10-23T06:21:25;12.40;99.90
72814;DHT22;60945;48.516;-2.768;2022-10-23T06:23:50;12.40;99.90
72814;DHT22;60945;48.516;-2.768;2022-10-23T06:26:17;12.40;99.90
72814;DHT22;60945;48.516;-2.768;2022-10-23T06:28:43;12.40;99.90
72814;DHT22;60945;48.516;-2.768;2022-10-23T06:31:12;12.40;99.90
72814;DHT22;60945;48.516;-2.768;2022-10-23T06:33:38;12.50;99.90
72814;DHT22;60945;48.516;-2.768;2022-10-23T06:36:04;12.50;99.90
72814;DHT22;60945;48.516;-2.768;2022-10-23T06:38:31;12.50;99.90
72814;DHT22;60945;48.516;-2.768;2022-10-23T06:41:02;12.50;99.90
72814;DHT22;60945;48.516;-2.768;2022-10-23T06:43:28;12.60;98.30
72814;DHT22;60945;48.516;-2.768;2022-10-23T06:45:54;12.70;97.40
72814;DHT22;60945;48.516;-2.768;2022-10-23T06:48:19;12.80;98.70
72814;DHT22;60945;48.516;-2.768;2022-10-23T06:50:45;12.90;98.10
72814;DHT22;60945;48.516;-2.768;2022-10-23T06:53:11;13.00;97.90
72814;DHT22;60945;48.516;-2.768;2022-10-23T06:55:37;13.00;97.90
72814;DHT22;60945;48.516;-2.768;2022-10-23T06:58:06;13.10;97.10
72814;DHT22;60945;48.516;-2.768;2022-10-23T07:00:38;13.20;94.50
72814;DHT22;60945;48.516;-2.768;2022-10-23T07:03:04;13.10;94.00
72814;DHT22;60945;48.516;-2.768;2022-10-23T07:05:31;13.20;93.70
72814;DHT22;60945;48.516;-2.768;2022-10-23T07:07:57;13.30;93.70
72814;DHT22;60945;48.516;-2.768;2022-10-23T07:10:22;13.30;93.00
72814;DHT22;60945;48.516;-2.768;2022-10-23T07:12:48;13.30;92.50
72814;DHT22;60945;48.516;-2.768;2022-10-23T07:15:14;13.20;92.80
72814;DHT22;60945;48.516;-2.768;2022-10-23T07:17:40;13.20;92.30
72814;DHT22;60945;48.516;-2.768;2022-10-23T07:20:06;13.20;91.70
72814;DHT22;60945;48.516;-2.768;2022-10-23T07:22:32;13.30;91.40
72814;DHT22;60945;48.516;-2.768;2022-10-23T07:24:57;13.50;91.10
72814;DHT22;60945;48.516;-2.768;2022-10-23T07:27:23;13.60;90.80
72814;DHT22;60945;48.516;-2.768;2022-10-23T07:29:49;13.60;90.40
72814;DHT22;60945;48.516;-2.768;2022-10-23T07:32:18;13.70;90.40
72814;DHT22;60945;48.516;-2.768;2022-10-23T07:34:44;13.70;90.70
72814;DHT22;60945;48.516;-2.768;2022-10-23T07:37:10;13.80;90.90
72814;DHT22;60945;48.516;-2.768;2022-10-23T07:39:38;13.80;90.80
72814;DHT22;60945;48.516;-2.768;2022-10-23T07:42:03;13.70;90.10
72814;DHT22;60945;48.516;-2.768;2022-10-23T07:44:29;13.50;90.50
72814;DHT22;60945;48.516;-2.768;2022-10-23T07:46:54;13.70;91.30
72814;DHT22;60945;48.516;-2.768;2022-10-23T07:49:20;13.90;90.20
72814;DHT22;60945;48.516;-2.768;2022-10-23T07:51:46;14.20;88.80
72814;DHT22;60945;48.516;-2.768;2022-10-23T07:54:11;14.40;85.40
72814;DHT22;60945;48.516;-2.768;2022-10-23T07:56:37;14.30;85.40
72814;DHT22;60945;48.516;-2.768;2022-10-23T07:59:03;14.20;85.60
72814;DHT22;60945;48.516;-2.768;2022-10-23T08:01:38;14.20;85.00
72814;DHT22;60945;48.516;-2.768;2022-10-23T08:04:05;14.20;85.00
72814;DHT22;60945;48.516;-2.768;2022-10-23T08:06:31;14.20;85.10
72814;DHT22;60945;48.516;-2.768;2022-10-23T08:08:57;14.10;85.80
72814;DHT22;60945;48.516;-2.768;2022-10-23T08:11:24;14.30;85.30
72814;DHT22;60945;48.516;-2.768;2022-10-23T08:13:56;14.70;84.00
72814;DHT22;60945;48.516;-2.768;2022-10-23T08:16:23;14.80;83.00
72814;DHT22;60945;48.516;-2.768;2022-10-23T08:18:50;14.90;82.70
72814;DHT22;60945;48.516;-2.768;2022-10-23T08:21:16;15.10;82.60
72814;DHT22;60945;48.516;-2.768;2022-10-23T08:23:43;15.80;79.60
72814;DHT22;60945;48.516;-2.768;2022-10-23T08:26:10;16.70;76.40
72814;DHT22;60945;48.516;-2.768;2022-10-23T08:28:36;17.30;73.30
72814;DHT22;60945;48.516;-2.768;2022-10-23T08:31:15;17.70;71.10
72814;DHT22;60945;48.516;-2.768;2022-10-23T08:33:41;18.10;70.30
72814;DHT22;60945;48.516;-2.768;2022-10-23T08:36:33;18.40;68.60
72814;DHT22;60945;48.516;-2.768;2022-10-23T08:39:01;18.60;67.50
72814;DHT22;60945;48.516;-2.768;2022-10-23T08:41:36;19.10;66.20
72814;DHT22;60945;48.516;-2.768;2022-10-23T08:47:09;19.60;64.70
72814;DHT22;60945;48.516;-2.768;2022-10-23T08:49:48;20.40;62.10
72814;DHT22;60945;48.516;-2.768;2022-10-23T08:57:44;23.50;53.40
72814;DHT22;60945;48.516;-2.768;2022-10-23T09:00:14;24.40;50.90
72814;DHT22;60945;48.516;-2.768;2022-10-23T09:02:49;25.00;48.90
72814;DHT22;60945;48.516;-2.768;2022-10-23T09:05:20;25.30;48.40
72814;DHT22;60945;48.516;-2.768;2022-10-23T09:18:46;25.80;45.70
72814;DHT22;60945;48.516;-2.768;2022-10-23T09:21:12;25.80;46.60
72814;DHT22;60945;48.516;-2.768;2022-10-23T09:23:38;25.80;46.20
72814;DHT22;60945;48.516;-2.768;2022-10-23T09:26:13;23.80;49.40
72814;DHT22;60945;48.516;-2.768;2022-10-23T09:28:49;21.60;55.40
72814;DHT22;60945;48.516;-2.768;2022-10-23T09:31:15;20.50;59.20
72814;DHT22;60945;48.516;-2.768;2022-10-23T09:33:41;19.90;61.30
72814;DHT22;60945;48.516;-2.768;2022-10-23T09:36:19;19.80;61.50
72814;DHT22;60945;48.516;-2.768;2022-10-23T09:41:38;19.70;61.20
72814;DHT22;60945;48.516;-2.768;2022-10-23T09:46:43;19.80;61.10
72814;DHT22;60945;48.516;-2.768;2022-10-23T09:49:24;20.00;59.00
72814;DHT22;60945;48.516;-2.768;2022-10-23T09:52:11;20.00;58.60
72814;DHT22;60945;48.516;-2.768;2022-10-23T09:54:48;20.20;59.00
72814;DHT22;60945;48.516;-2.768;2022-10-23T10:00:21;20.40;58.40
72814;DHT22;60945;48.516;-2.768;2022-10-23T10:03:04;19.90;58.10
72814;DHT22;60945;48.516;-2.768;2022-10-23T10:05:33;20.10;58.60
72814;DHT22;60945;48.516;-2.768;2022-10-23T10:10:51;19.80;58.60
72814;DHT22;60945;48.516;-2.768;2022-10-23T10:19:20;19.50;59.60
72814;DHT22;60945;48.516;-2.768;2022-10-23T10:22:11;19.80;59.00
72814;DHT22;60945;48.516;-2.768;2022-10-23T10:24:46;19.80;58.90
72814;DHT22;60945;48.516;-2.768;2022-10-23T10:30:14;19.70;59.40
72814;DHT22;60945;48.516;-2.768;2022-10-23T10:43:40;19.50;60.10
72814;DHT22;60945;48.516;-2.768;2022-10-23T10:46:18;19.50;59.60
72814;DHT22;60945;48.516;-2.768;2022-10-23T10:54:16;19.30;60.50
72814;DHT22;60945;48.516;-2.768;2022-10-23T10:56:46;19.30;61.30
72814;DHT22;60945;48.516;-2.768;2022-10-23T10:59:22;19.60;60.60
72814;DHT22;60945;48.516;-2.768;2022-10-23T11:02:01;19.70;60.40
72814;DHT22;60945;48.516;-2.768;2022-10-23T11:04:37;19.70;60.50
72814;DHT22;60945;48.516;-2.768;2022-10-23T11:07:10;20.10;59.00
72814;DHT22;60945;48.516;-2.768;2022-10-23T11:09:37;20.10;59.60
72814;DHT22;60945;48.516;-2.768;2022-10-23T11:12:03;20.20;59.60
72814;DHT22;60945;48.516;-2.768;2022-10-23T11:14:31;19.90;60.10
72814;DHT22;60945;48.516;-2.768;2022-10-23T11:17:09;19.60;60.90
72814;DHT22;60945;48.516;-2.768;2022-10-23T11:22:41;19.10;61.70
72814;DHT22;60945;48.516;-2.768;2022-10-23T11:25:38;18.90;62.00
72814;DHT22;60945;48.516;-2.768;2022-10-23T11:31:38;18.90;62.80
72814;DHT22;60945;48.516;-2.768;2022-10-23T11:36:58;18.60;56.20
72814;DHT22;60945;48.516;-2.768;2022-10-23T11:39:31;18.30;59.90
72814;DHT22;60945;48.516;-2.768;2022-10-23T11:44:49;17.90;56.10
72814;DHT22;60945;48.516;-2.768;2022-10-23T11:49:49;18.20;56.10
72814;DHT22;60945;48.516;-2.768;2022-10-23T11:52:23;18.00;56.60
72814;DHT22;60945;48.516;-2.768;2022-10-23T11:55:00;17.70;57.70
72814;DHT22;60945;48.516;-2.768;2022-10-23T11:57:26;17.90;57.50
72814;DHT22;60945;48.516;-2.768;2022-10-23T11:59:53;18.10;57.60
72814;DHT22;60945;48.516;-2.768;2022-10-23T12:02:37;18.10;56.80
72814;DHT22;60945;48.516;-2.768;2022-10-23T12:05:07;17.90;57.90
72814;DHT22;60945;48.516;-2.768;2022-10-23T12:07:39;17.70;58.60
72814;DHT22;60945;48.516;-2.768;2022-10-23T12:10:21;17.70;58.80
72814;DHT22;60945;48.516;-2.768;2022-10-23T12:13:02;17.70;59.40
72814;DHT22;60945;48.516;-2.768;2022-10-23T12:15:32;17.60;59.70
72814;DHT22;60945;48.516;-2.768;2022-10-23T12:18:13;17.70;60.70
72814;DHT22;60945;48.516;-2.768;2022-10-23T12:21:02;18.10;59.90
72814;DHT22;60945;48.516;-2.768;2022-10-23T12:26:09;19.10;57.60
72814;DHT22;60945;48.516;-2.768;2022-10-23T12:28:42;19.20;57.20
72814;DHT22;60945;48.516;-2.768;2022-10-23T12:41:51;18.50;60.90
72814;DHT22;60945;48.516;-2.768;2022-10-23T12:44:17;18.80;60.60
72814;DHT22;60945;48.516;-2.768;2022-10-23T12:46:46;19.10;58.70
72814;DHT22;60945;48.516;-2.768;2022-10-23T12:49:15;19.10;57.30
72814;DHT22;60945;48.516;-2.768;2022-10-23T12:51:41;19.20;57.40
72814;DHT22;60945;48.516;-2.768;2022-10-23T12:54:17;19.20;57.80
72814;DHT22;60945;48.516;-2.768;2022-10-23T12:56:44;19.30;57.50
72814;DHT22;60945;48.516;-2.768;2022-10-23T12:59:21;19.20;57.50
72814;DHT22;60945;48.516;-2.768;2022-10-23T13:01:47;19.10;56.90
72814;DHT22;60945;48.516;-2.768;2022-10-23T13:06:44;19.40;56.80
72814;DHT22;60945;48.516;-2.768;2022-10-23T13:09:23;19.90;55.60
72814;DHT22;60945;48.516;-2.768;2022-10-23T13:11:53;19.30;56.70
72814;DHT22;60945;48.516;-2.768;2022-10-23T13:14:40;19.00;57.00
72814;DHT22;60945;48.516;-2.768;2022-10-23T13:17:09;19.00;57.20
72814;DHT22;60945;48.516;-2.768;2022-10-23T13:19:36;19.30;57.70
72814;DHT22;60945;48.516;-2.768;2022-10-23T13:22:17;19.30;56.40
72814;DHT22;60945;48.516;-2.768;2022-10-23T13:24:43;19.50;56.00
72814;DHT22;60945;48.516;-2.768;2022-10-23T13:27:30;20.40;54.20
72814;DHT22;60945;48.516;-2.768;2022-10-23T13:29:57;20.40;54.20
72814;DHT22;60945;48.516;-2.768;2022-10-23T13:32:25;22.10;49.70
72814;DHT22;60945;48.516;-2.768;2022-10-23T13:34:52;23.90;45.40
72814;DHT22;60945;48.516;-2.768;2022-10-23T13:37:27;24.40;42.90
72814;DHT22;60945;48.516;-2.768;2022-10-23T13:40:00;23.70;45.50
72814;DHT22;60945;48.516;-2.768;2022-10-23T13:42:27;25.50;41.40
72814;DHT22;60945;48.516;-2.768;2022-10-23T13:44:52;26.00;40.60
72814;DHT22;60945;48.516;-2.768;2022-10-23T13:47:18;26.60;39.40
72814;DHT22;60945;48.516;-2.768;2022-10-23T13:49:47;25.60;39.90
72814;DHT22;60945;48.516;-2.768;2022-10-23T13:52:15;24.40;41.80
72814;DHT22;60945;48.516;-2.768;2022-10-23T13:54:43;24.10;42.80
72814;DHT22;60945;48.516;-2.768;2022-10-23T13:57:12;22.50;45.60
72814;DHT22;60945;48.516;-2.768;2022-10-23T13:59:38;22.90;45.30
72814;DHT22;60945;48.516;-2.768;2022-10-23T14:02:17;22.90;45.20
72814;DHT22;60945;48.516;-2.768;2022-10-23T14:04:43;22.00;47.40
72814;DHT22;60945;48.516;-2.768;2022-10-23T14:07:09;21.40;48.60
72814;DHT22;60945;48.516;-2.768;2022-10-23T14:09:34;20.20;51.90
72814;DHT22;60945;48.516;-2.768;2022-10-23T14:12:00;20.20;52.50
72814;DHT22;60945;48.516;-2.768;2022-10-23T14:14:25;20.30;53.30
72814;DHT22;60945;48.516;-2.768;2022-10-23T14:16:51;18.90;58.10
72814;DHT22;60945;48.516;-2.768;2022-10-23T14:19:17;18.80;63.20
72814;DHT22;60945;48.516;-2.768;2022-10-23T14:21:43;19.20;63.30
72814;DHT22;60945;48.516;-2.768;2022-10-23T14:24:08;19.90;60.90
72814;DHT22;60945;48.516;-2.768;2022-10-23T14:26:34;21.00;57.80
72814;DHT22;60945;48.516;-2.768;2022-10-23T14:29:00;19.90;58.70
72814;DHT22;60945;48.516;-2.768;2022-10-23T14:31:25;19.60;60.10
72814;DHT22;60945;48.516;-2.768;2022-10-23T14:33:54;18.30;63.50
72814;DHT22;60945;48.516;-2.768;2022-10-23T14:36:20;18.00;64.40
72814;DHT22;60945;48.516;-2.768;2022-10-23T14:38:46;18.10;63.90
72814;DHT22;60945;48.516;-2.768;2022-10-23T14:41:14;18.20;63.30
72814;DHT22;60945;48.516;-2.768;2022-10-23T14:43:40;18.00;62.70
72814;DHT22;60945;48.516;-2.768;2022-10-23T14:46:09;18.00;63.70
72814;DHT22;60945;48.516;-2.768;2022-10-23T14:48:34;18.00;62.90
72814;DHT22;60945;48.516;-2.768;2022-10-23T14:51:04;17.90;62.60
72814;DHT22;60945;48.516;-2.768;2022-10-23T14:53:30;17.90;63.30
72814;DHT22;60945;48.516;-2.768;2022-10-23T14:56:03;17.80;64.00
72814;DHT22;60945;48.516;-2.768;2022-10-23T14:58:29;17.60;64.20
72814;DHT22;60945;48.516;-2.768;2022-10-23T15:00:59;17.50;65.10
72814;DHT22;60945;48.516;-2.768;2022-10-23T15:03:26;17.50;65.50
72814;DHT22;60945;48.516;-2.768;2022-10-23T15:05:51;16.80;71.10
72814;DHT22;60945;48.516;-2.768;2022-10-23T15:08:17;16.50;71.80
72814;DHT22;60945;48.516;-2.768;2022-10-23T15:10:43;16.50;72.10
72814;DHT22;60945;48.516;-2.768;2022-10-23T15:13:08;16.60;72.00
72814;DHT22;60945;48.516;-2.768;2022-10-23T15:15:34;16.40;74.20
72814;DHT22;60945;48.516;-2.768;2022-10-23T15:17:59;16.20;75.40
72814;DHT22;60945;48.516;-2.768;2022-10-23T15:20:25;16.20;76.10
72814;DHT22;60945;48.516;-2.768;2022-10-23T15:22:51;16.30;76.40
72814;DHT22;60945;48.516;-2.768;2022-10-23T15:25:16;15.50;86.60
72814;DHT22;60945;48.516;-2.768;2022-10-23T15:27:42;14.70;93.00
72814;DHT22;60945;48.516;-2.768;2022-10-23T15:30:08;14.50;95.30
72814;DHT22;60945;48.516;-2.768;2022-10-23T15:32:35;14.50;96.60
72814;DHT22;60945;48.516;-2.768;2022-10-23T15:35:01;14.40;96.80
72814;DHT22;60945;48.516;-2.768;2022-10-23T15:37:26;14.40;98.00
72814;DHT22;60945;48.516;-2.768;2022-10-23T15:39:52;14.20;95.80
72814;DHT22;60945;48.516;-2.768;2022-10-23T15:42:18;14.20;96.90
72814;DHT22;60945;48.516;-2.768;2022-10-23T15:44:44;14.20;97.60
72814;DHT22;60945;48.516;-2.768;2022-10-23T15:47:10;14.10;96.90
72814;DHT22;60945;48.516;-2.768;2022-10-23T15:49:35;14.10;97.80
72814;DHT22;60945;48.516;-2.768;2022-10-23T15:52:03;14.20;98.30
72814;DHT22;60945;48.516;-2.768;2022-10-23T15:54:29;14.20;98.50
72814;DHT22;60945;48.516;-2.768;2022-10-23T15:56:55;14.20;98.60
72814;DHT22;60945;48.516;-2.768;2022-10-23T15:59:23;14.20;96.10
72814;DHT22;60945;48.516;-2.768;2022-10-23T16:01:50;14.10;96.40
72814;DHT22;60945;48.516;-2.768;2022-10-23T16:04:16;14.10;97.10
72814;DHT22;60945;48.516;-2.768;2022-10-23T16:06:43;14.20;97.20
72814;DHT22;60945;48.516;-2.768;2022-10-23T16:09:09;14.30;96.50
72814;DHT22;60945;48.516;-2.768;2022-10-23T16:11:36;14.50;96.60
72814;DHT22;60945;48.516;-2.768;2022-10-23T16:14:02;14.60;94.10
72814;DHT22;60945;48.516;-2.768;2022-10-23T16:16:29;14.60;94.00
72814;DHT22;60945;48.516;-2.768;2022-10-23T16:19:00;14.50;93.20
72814;DHT22;60945;48.516;-2.768;2022-10-23T16:21:29;14.50;92.90
72814;DHT22;60945;48.516;-2.768;2022-10-23T16:23:59;14.40;92.60
72814;DHT22;60945;48.516;-2.768;2022-10-23T16:26:26;14.20;95.50
72814;DHT22;60945;48.516;-2.768;2022-10-23T16:28:54;14.00;98.30
72814;DHT22;60945;48.516;-2.768;2022-10-23T16:31:21;14.00;99.90
72814;DHT22;60945;48.516;-2.768;2022-10-23T16:33:48;14.00;99.90
72814;DHT22;60945;48.516;-2.768;2022-10-23T16:36:14;14.00;99.90
72814;DHT22;60945;48.516;-2.768;2022-10-23T16:38:40;14.00;99.90
72814;DHT22;60945;48.516;-2.768;2022-10-23T16:41:06;14.10;99.90
72814;DHT22;60945;48.516;-2.768;2022-10-23T16:43:33;14.10;99.00
72814;DHT22;60945;48.516;-2.768;2022-10-23T16:46:20;14.00;98.80
72814;DHT22;60945;48.516;-2.768;2022-10-23T16:48:46;14.00;99.30
72814;DHT22;60945;48.516;-2.768;2022-10-23T16:51:19;14.00;99.30
72814;DHT22;60945;48.516;-2.768;2022-10-23T16:53:46;14.00;97.60
72814;DHT22;60945;48.516;-2.768;2022-10-23T16:56:14;14.10;94.20
72814;DHT22;60945;48.516;-2.768;2022-10-23T16:58:40;14.20;92.90
72814;DHT22;60945;48.516;-2.768;2022-10-23T17:01:10;14.20;91.40
72814;DHT22;60945;48.516;-2.768;2022-10-23T17:03:38;14.20;92.10
72814;DHT22;60945;48.516;-2.768;2022-10-23T17:06:06;14.20;90.80
72814;DHT22;60945;48.516;-2.768;2022-10-23T17:08:32;14.30;89.80
72814;DHT22;60945;48.516;-2.768;2022-10-23T17:11:06;14.20;89.40
72814;DHT22;60945;48.516;-2.768;2022-10-23T17:13:34;14.30;88.70